createdAt,value
2022-09-06T00:00:26.431Z,98283.13
2022-09-06T00:03:29.958Z,98285.19
2022-09-06T00:06:33.145Z,98284.47
2022-09-06T00:09:37.746Z,98283.91
2022-09-06T00:12:41.291Z,98291.25
2022-09-06T00:15:44.532Z,98283.31
2022-09-06T00:18:48.107Z,98282.91
2022-09-06T00:21:51.354Z,98272.19
2022-09-06T00:24:55.949Z,98284.72
2022-09-06T00:28:06.969Z,98276.13
2022-09-06T00:31:11.473Z,98288.63
2022-09-06T00:34:14.799Z,98294.28
2022-09-06T00:37:18.259Z,98297.00
2022-09-06T00:40:22.883Z,98295.81
2022-09-06T00:43:26.383Z,98293.84
2022-09-06T00:46:32.075Z,98298.72
2022-09-06T00:49:40.210Z,98299.03
2022-09-06T00:52:46.068Z,98290.91
2022-09-06T00:55:50.900Z,98290.75
2022-09-06T00:58:54.400Z,98283.41
2022-09-06T01:01:57.965Z,98297.22
2022-09-06T01:05:02.256Z,98297.78
2022-09-06T01:08:16.248Z,98308.38
2022-09-06T01:11:53.569Z,98295.53
2022-09-06T01:15:09.463Z,98288.06
2022-09-06T01:18:29.870Z,98290.47
2022-09-06T01:21:51.167Z,98275.75
2022-09-06T01:25:09.919Z,98295.81
2022-09-06T01:28:36.569Z,98303.72
2022-09-06T01:31:45.728Z,98254.81
2022-09-06T01:34:53.988Z,98301.44
2022-09-06T01:37:58.436Z,98289.47
2022-09-06T01:41:01.876Z,98296.81
2022-09-06T01:44:06.566Z,98295.69
2022-09-06T01:47:21.659Z,98282.00
2022-09-06T01:50:37.934Z,98299.97
2022-09-06T01:54:07.128Z,98302.59
2022-09-06T01:57:23.607Z,98305.19
2022-09-06T02:00:29.229Z,98303.84
2022-09-06T02:03:39.397Z,98291.56
2022-09-06T02:06:45.516Z,98267.66
2022-09-06T02:09:54.247Z,98293.75
2022-09-06T02:13:01.557Z,98266.22
2022-09-06T02:16:08.323Z,98281.34
2022-09-06T02:19:15.299Z,98228.81
2022-09-06T02:22:22.332Z,98298.91
2022-09-06T02:25:32.717Z,98290.34
2022-09-06T02:28:36.311Z,98286.69
2022-09-06T02:31:46.677Z,98286.50
2022-09-06T02:34:52.296Z,98287.34
2022-09-06T02:37:56.334Z,98282.78
2022-09-06T02:40:59.803Z,98288.91
2022-09-06T02:44:03.647Z,98290.78
2022-09-06T02:47:08.713Z,98287.78
2022-09-06T02:50:13.263Z,98296.75
2022-09-06T02:53:17.384Z,98271.28
2022-09-06T02:56:20.577Z,98303.50
2022-09-06T02:59:24.088Z,98291.47
2022-09-06T03:02:28.746Z,98294.19
2022-09-06T03:05:32.917Z,98272.19
2022-09-06T03:08:36.542Z,98292.94
2022-09-06T03:11:39.729Z,98293.03
2022-09-06T03:14:43.140Z,98291.09
2022-09-06T03:17:47.937Z,98285.34
2022-09-06T03:20:51.555Z,98299.13
2022-09-06T03:23:54.888Z,98296.78
2022-09-06T03:26:58.151Z,98298.59
2022-09-06T03:30:01.377Z,98289.66
2022-09-06T03:34:20.436Z,98293.06
2022-09-06T03:37:23.735Z,98287.84
2022-09-06T03:40:27.245Z,98278.25
2022-09-06T03:43:32.151Z,98283.41
2022-09-06T03:46:35.363Z,98276.34
2022-09-06T03:49:39.976Z,98275.09
2022-09-06T03:52:43.645Z,98267.53
2022-09-06T03:55:48.419Z,98276.00
2022-09-06T03:58:51.573Z,98274.59
2022-09-06T04:01:54.813Z,98243.69
2022-09-06T04:04:59.345Z,98272.75
2022-09-06T04:08:02.926Z,98275.53
2022-09-06T04:11:06.995Z,98277.41
2022-09-06T04:14:10.498Z,98278.69
2022-09-06T04:17:14.649Z,98270.72
2022-09-06T04:20:19.505Z,98280.47
2022-09-06T04:23:24.043Z,98278.19
2022-09-06T04:26:27.410Z,98274.47
2022-09-06T04:29:30.602Z,98260.44
2022-09-06T04:32:33.832Z,98271.75
2022-09-06T04:35:40.788Z,98276.28
2022-09-06T04:38:45.834Z,98276.22
2022-09-06T04:41:49.017Z,98285.72
2022-09-06T04:44:52.166Z,98284.44
2022-09-06T04:47:55.474Z,98295.41
2022-09-06T04:51:00.025Z,98290.09
2022-09-06T04:54:03.309Z,98293.56
2022-09-06T04:57:06.850Z,98283.56
2022-09-06T05:00:11.315Z,98293.91
2022-09-06T05:03:14.609Z,98286.09
2022-09-06T05:06:22.975Z,98273.84
2022-09-06T05:09:26.097Z,98277.81
2022-09-06T05:12:29.511Z,98275.75
2022-09-06T05:15:33.632Z,98276.16
2022-09-06T05:18:37.334Z,98261.34
2022-09-06T05:21:42.086Z,98290.06
2022-09-06T05:24:46.372Z,98292.63
2022-09-06T05:27:49.851Z,98304.16
2022-09-06T05:30:53.105Z,98320.13
2022-09-06T05:33:57.729Z,98316.44
2022-09-06T05:37:02.467Z,98311.72
2022-09-06T05:40:06.358Z,98309.81
2022-09-06T05:43:09.864Z,98297.09
2022-09-06T05:46:14.025Z,98337.09
2022-09-06T05:49:17.500Z,98335.75
2022-09-06T05:52:22.414Z,98327.00
2022-09-06T05:55:25.638Z,98310.16
2022-09-06T05:58:29.028Z,98315.34
2022-09-06T06:01:32.491Z,98300.94
2022-09-06T06:04:35.985Z,98266.94
2022-09-06T06:07:40.792Z,98290.28
2022-09-06T06:10:44.364Z,98290.59
2022-09-06T06:13:47.618Z,98287.22
2022-09-06T06:16:52.344Z,98269.72
2022-09-06T06:19:55.957Z,98278.94
2022-09-06T06:23:00.866Z,98279.34
2022-09-06T06:26:04.431Z,98268.31
2022-09-06T06:29:08.159Z,98254.50
2022-09-06T06:32:12.665Z,98255.44
2022-09-06T06:35:16.163Z,98264.66
2022-09-06T06:38:20.968Z,98275.34
2022-09-06T06:41:27.006Z,98274.13
2022-09-06T06:44:30.439Z,98273.88
2022-09-06T06:47:33.585Z,98276.31
2022-09-06T06:50:37.010Z,98271.38
2022-09-06T06:53:42.148Z,98244.53
2022-09-06T06:56:45.759Z,98261.72
2022-09-06T06:59:49.104Z,98250.44
2022-09-06T07:02:52.917Z,98240.91
2022-09-06T07:06:12.146Z,98246.78
2022-09-06T07:09:18.246Z,98254.31
2022-09-06T07:12:21.470Z,98252.94
2022-09-06T07:15:25.124Z,98254.72
2022-09-06T07:18:28.247Z,98258.66
2022-09-06T07:24:42.677Z,98251.84
2022-09-06T07:30:56.181Z,98251.50
2022-09-06T07:33:59.601Z,98251.13
2022-09-06T07:37:02.822Z,98253.03
2022-09-06T07:40:08.494Z,98256.34
2022-09-06T07:43:11.786Z,98252.78
2022-09-06T07:46:17.322Z,98258.41
2022-09-06T07:49:20.709Z,98233.00
2022-09-06T07:55:51.905Z,98247.13
2022-09-06T07:58:55.957Z,98250.63
2022-09-06T08:01:59.186Z,98252.22
2022-09-06T08:05:02.577Z,98258.19
2022-09-06T08:11:33.727Z,98252.03
2022-09-06T08:14:37.086Z,98249.00
2022-09-06T08:17:50.035Z,98238.63
2022-09-06T08:21:11.526Z,98245.91
2022-09-06T08:24:15.876Z,98251.03
2022-09-06T08:27:20.787Z,98235.25
2022-09-06T08:30:23.974Z,98235.28
2022-09-06T08:33:28.185Z,98240.59
2022-09-06T08:36:32.239Z,98246.19
2022-09-06T08:39:35.619Z,98246.47
2022-09-06T08:42:41.053Z,98247.88
2022-09-06T08:45:46.696Z,98252.19
2022-09-06T08:48:50.223Z,98254.50
2022-09-06T08:52:22.090Z,98252.16
2022-09-06T08:55:37.395Z,98241.41
2022-09-06T08:58:57.746Z,98223.03
2022-09-06T09:02:07.831Z,98249.03
2022-09-06T09:05:20.971Z,98250.66
2022-09-06T09:08:27.977Z,98229.47
2022-09-06T09:11:33.441Z,98245.75
2022-09-06T09:14:43.062Z,98236.97
2022-09-06T09:17:48.036Z,98218.75
2022-09-06T09:20:51.651Z,98233.97
2022-09-06T09:23:56.746Z,98232.50
2022-09-06T09:27:06.641Z,98215.13
2022-09-06T09:34:33.297Z,98201.66
2022-09-06T09:37:55.405Z,98189.16
2022-09-06T09:41:02.852Z,98200.16
2022-09-06T09:44:08.443Z,98192.69
2022-09-06T09:47:25.201Z,98197.81
2022-09-06T09:50:32.116Z,98181.72
2022-09-06T09:53:51.516Z,98177.16
2022-09-06T09:56:56.643Z,98176.97
2022-09-06T10:00:01.964Z,98169.53
2022-09-06T10:03:15.659Z,98172.22
2022-09-06T10:09:58.150Z,98166.53
2022-09-06T10:13:09.990Z,98163.19
2022-09-06T10:16:14.294Z,98125.59
2022-09-06T10:19:38.806Z,98162.16
2022-09-06T10:22:52.959Z,98156.78
2022-09-06T10:26:02.936Z,98148.19
2022-09-06T10:29:07.224Z,98153.44
2022-09-06T10:32:30.970Z,98144.84
2022-09-06T10:35:38.665Z,98144.97
2022-09-06T10:38:53.586Z,98149.28
2022-09-06T10:42:09.262Z,98140.22
2022-09-06T10:45:29.126Z,98147.94
2022-09-06T10:48:34.520Z,98118.13
2022-09-06T10:51:41.245Z,98142.84
2022-09-06T10:54:47.276Z,98148.75
2022-09-06T11:01:28.408Z,98129.19
2022-09-06T11:11:35.642Z,98124.59
2022-09-06T11:14:40.357Z,98130.56
2022-09-06T11:17:48.587Z,98116.38
2022-09-06T11:21:05.253Z,98124.03
2022-09-06T11:24:13.760Z,98116.78
2022-09-06T11:27:22.938Z,98108.13
2022-09-06T11:30:28.485Z,98110.09
2022-09-06T11:33:35.624Z,98110.00
2022-09-06T11:36:46.114Z,98102.81
2022-09-06T11:43:49.342Z,98098.97
2022-09-06T11:47:00.296Z,98098.94
2022-09-06T11:50:19.891Z,98098.44
2022-09-06T11:53:24.872Z,98094.22
2022-09-06T11:56:32.377Z,98100.00
2022-09-06T11:59:44.317Z,98087.16
2022-09-06T12:02:47.690Z,98091.72
2022-09-06T12:06:17.114Z,98089.13
2022-09-06T12:09:31.704Z,98070.94
2022-09-06T12:12:43.300Z,98066.53
2022-09-06T12:15:54.368Z,98085.38
2022-09-06T12:19:02.851Z,98085.47
2022-09-06T12:23:02.571Z,98073.72
2022-09-06T12:26:07.522Z,98077.09
2022-09-06T12:29:12.194Z,98072.50
2022-09-06T12:32:23.017Z,98077.69
2022-09-06T12:39:02.437Z,98069.03
2022-09-06T12:42:12.123Z,98068.31
2022-09-06T12:45:16.748Z,98052.03
2022-09-06T12:48:29.019Z,98048.50
2022-09-06T12:51:32.739Z,98024.94
2022-09-06T12:54:44.288Z,98054.75
2022-09-06T12:57:51.855Z,98010.00
2022-09-06T13:00:56.018Z,98048.19
2022-09-06T13:04:05.071Z,98047.81
2022-09-06T13:07:15.606Z,98045.78
2022-09-06T13:10:22.914Z,98043.91
2022-09-06T13:13:27.842Z,98039.44
2022-09-06T13:16:37.802Z,98037.38
2022-09-06T13:19:42.599Z,98037.69
2022-09-06T13:22:49.352Z,98034.44
2022-09-06T13:25:53.925Z,98036.31
2022-09-06T13:28:58.690Z,98033.69
2022-09-06T13:32:05.670Z,98033.47
2022-09-06T13:35:10.209Z,98039.22
2022-09-06T13:38:32.117Z,98012.88
2022-09-06T13:41:42.200Z,98023.81
2022-09-06T13:44:46.664Z,98017.16
2022-09-06T13:47:49.829Z,98010.22
2022-09-06T13:50:53.066Z,98025.66
2022-09-06T13:54:05.892Z,98025.03
2022-09-06T13:57:09.772Z,98025.56
2022-09-06T14:00:17.285Z,98020.16
2022-09-06T14:03:24.789Z,98019.38
2022-09-06T14:06:32.417Z,98012.28
2022-09-06T14:09:38.287Z,98003.69
2022-09-06T14:12:44.464Z,98018.53
2022-09-06T14:15:53.850Z,98000.19
2022-09-06T14:18:59.658Z,98003.25
2022-09-06T14:22:04.954Z,97999.94
2022-09-06T14:25:09.491Z,98000.59
2022-09-06T14:28:14.852Z,97957.94
2022-09-06T14:31:21.678Z,97995.66
2022-09-06T14:34:25.711Z,97990.94
2022-09-06T14:37:29.039Z,97984.50
2022-09-06T14:40:35.920Z,97982.75
2022-09-06T14:43:39.216Z,97984.44
2022-09-06T14:46:43.999Z,97974.19
2022-09-06T14:49:48.742Z,97968.44
2022-09-06T14:52:53.757Z,97959.22
2022-09-06T14:56:02.882Z,97957.50
2022-09-06T14:59:06.677Z,97957.78
2022-09-06T15:02:11.606Z,97959.81
2022-09-06T15:05:14.953Z,97954.59
2022-09-06T15:08:18.955Z,97946.75
2022-09-06T15:11:31.080Z,97933.44
2022-09-06T15:14:37.360Z,97944.66
2022-09-06T15:17:42.170Z,97945.94
2022-09-06T15:20:46.454Z,97946.34
2022-09-06T15:23:49.932Z,97947.22
2022-09-06T15:26:53.547Z,97926.94
2022-09-06T15:29:59.133Z,97946.13
2022-09-06T15:34:23.909Z,97939.22
2022-09-06T15:37:27.847Z,97937.69
2022-09-06T15:40:31.288Z,97941.16
2022-09-06T15:43:34.841Z,97944.75
2022-09-06T15:46:48.310Z,97935.53
2022-09-06T15:49:53.135Z,97927.19
2022-09-06T15:52:56.598Z,97928.84
2022-09-06T15:56:02.529Z,97924.56
2022-09-06T15:59:07.073Z,97923.47
2022-09-06T16:02:11.005Z,97917.78
2022-09-06T16:05:16.262Z,97927.78
2022-09-06T16:08:19.615Z,97908.28
2022-09-06T16:11:23.018Z,97925.13
2022-09-06T16:14:28.102Z,97880.56
2022-09-06T16:17:31.514Z,97921.09
2022-09-06T16:20:38.083Z,97917.81
2022-09-06T16:23:42.785Z,97893.22
2022-09-06T16:26:47.282Z,97905.44
2022-09-06T16:29:50.489Z,97892.50
2022-09-06T16:32:53.738Z,97905.78
2022-09-06T16:36:00.134Z,97907.69
2022-09-06T16:39:04.005Z,97899.75
2022-09-06T16:42:09.568Z,97874.66
2022-09-06T16:45:17.622Z,97904.94
2022-09-06T16:48:20.984Z,97898.38
2022-09-06T16:51:27.397Z,97898.72
2022-09-06T16:54:30.673Z,97901.19
2022-09-06T16:57:34.293Z,97901.53
2022-09-06T17:00:41.129Z,97892.63
2022-09-06T17:03:47.182Z,97889.69
2022-09-06T17:06:51.866Z,97890.47
2022-09-06T17:09:55.352Z,97892.25
2022-09-06T17:12:58.645Z,97890.59
2022-09-06T17:16:22.283Z,97895.19
2022-09-06T17:19:25.943Z,97893.50
2022-09-06T17:22:31.054Z,97889.31
2022-09-06T17:25:34.320Z,97886.13
2022-09-06T17:28:40.604Z,97880.94
2022-09-06T17:31:44.023Z,97878.69
2022-09-06T17:34:47.335Z,97887.88
2022-09-06T17:37:52.061Z,97880.84
2022-09-06T17:40:59.555Z,97869.41
2022-09-06T17:44:02.882Z,97870.94
2022-09-06T17:47:13.010Z,97901.28
2022-09-06T17:50:17.596Z,97890.72
2022-09-06T17:53:22.766Z,97884.38
2022-09-06T17:56:26.265Z,97887.09
2022-09-06T17:59:34.794Z,97890.72
2022-09-06T18:02:39.194Z,97897.06
2022-09-06T18:05:43.711Z,97899.88
2022-09-06T18:08:48.642Z,97899.75
2022-09-06T18:11:51.974Z,97908.41
2022-09-06T18:14:55.215Z,97914.97
2022-09-06T18:17:58.719Z,97876.06
2022-09-06T18:21:03.025Z,97919.56
2022-09-06T18:24:08.243Z,97917.22
2022-09-06T18:27:11.522Z,97920.84
2022-09-06T18:30:15.186Z,97919.63
2022-09-06T18:33:18.488Z,97924.38
2022-09-06T18:36:21.883Z,97942.16
2022-09-06T18:39:26.867Z,97938.97
2022-09-06T18:42:30.742Z,97935.09
2022-09-06T18:45:34.244Z,97928.88
2022-09-06T18:48:38.784Z,97900.16
2022-09-06T18:51:42.772Z,97901.56
2022-09-06T18:54:48.991Z,97935.13
2022-09-06T18:57:52.427Z,97937.84
2022-09-06T19:01:03.048Z,97939.66
2022-09-06T19:04:08.206Z,97945.75
2022-09-06T19:07:11.633Z,97941.84
2022-09-06T19:10:16.561Z,97953.50
2022-09-06T19:13:20.067Z,97949.06
2022-09-06T19:16:25.159Z,97878.44
2022-09-06T19:19:28.621Z,97950.56
2022-09-06T19:22:33.170Z,97952.94
2022-09-06T19:25:39.098Z,97949.59
2022-09-06T19:28:42.488Z,97952.63
2022-09-06T19:31:47.185Z,97950.25
2022-09-06T19:34:51.019Z,97952.41
2022-09-06T19:37:54.384Z,97945.56
2022-09-06T19:41:04.125Z,97947.28
2022-09-06T19:44:08.971Z,97950.00
2022-09-06T19:47:12.626Z,97951.84
2022-09-06T19:50:16.079Z,97952.53
2022-09-06T19:53:19.467Z,97928.69
2022-09-06T19:56:26.381Z,97956.00
2022-09-06T19:59:29.777Z,97957.66
2022-09-06T20:02:33.130Z,97961.34
2022-09-06T20:05:36.883Z,97963.22
2022-09-06T20:08:41.296Z,97936.44
2022-09-06T20:11:46.394Z,97936.22
2022-09-06T20:14:49.706Z,97948.84
2022-09-06T20:17:53.289Z,97942.06
2022-09-06T20:20:59.306Z,97918.50
2022-09-06T20:24:02.884Z,97937.94
2022-09-06T20:27:07.581Z,97937.38
2022-09-06T20:30:12.083Z,97934.38
2022-09-06T20:33:16.210Z,97935.63
2022-09-06T20:36:20.174Z,97933.94
2022-09-06T20:39:23.631Z,97909.94
2022-09-06T20:42:28.330Z,97919.72
2022-09-06T20:45:36.553Z,97928.94
2022-09-06T20:48:44.483Z,97930.78
2022-09-06T20:51:48.193Z,97920.88
2022-09-06T20:54:51.572Z,97926.72
2022-09-06T20:57:56.378Z,97923.53
2022-09-06T21:01:00.513Z,97920.88
2022-09-06T21:04:06.226Z,97896.50
2022-09-06T21:07:09.488Z,97910.41
2022-09-06T21:10:13.282Z,97904.16
2022-09-06T21:13:17.910Z,97904.81
2022-09-06T21:16:24.695Z,97917.31
2022-09-06T21:19:28.458Z,97926.88
2022-09-06T21:22:31.848Z,97906.28
2022-09-06T21:25:35.333Z,97941.19
2022-09-06T21:28:41.683Z,97945.59
2022-09-06T21:34:20.155Z,97925.38
2022-09-06T21:37:23.492Z,97937.19
2022-09-06T21:40:26.717Z,97940.38
2022-09-06T21:43:30.222Z,97951.09
2022-09-06T21:46:35.340Z,97915.59
2022-09-06T21:49:40.005Z,97947.16
2022-09-06T21:52:43.261Z,97933.00
2022-09-06T21:55:46.537Z,97946.31
2022-09-06T21:58:51.424Z,97948.94
2022-09-06T22:01:54.680Z,97966.59
2022-09-06T22:04:59.480Z,97960.03
2022-09-06T22:08:02.780Z,97960.38
2022-09-06T22:11:10.896Z,97959.31
2022-09-06T22:14:15.733Z,97964.91
2022-09-06T22:17:20.678Z,97965.72
2022-09-06T22:20:25.503Z,97956.94
2022-09-06T22:23:29.033Z,97949.56
2022-09-06T22:26:34.965Z,97958.03
2022-09-06T22:29:38.374Z,97962.06
2022-09-06T22:32:41.853Z,97962.19
2022-09-06T22:35:46.682Z,97961.09
2022-09-06T22:38:53.014Z,97971.56
2022-09-06T22:41:56.362Z,97963.59
2022-09-06T22:44:59.729Z,97970.13
2022-09-06T22:48:03.793Z,97974.53
2022-09-06T22:51:08.931Z,97970.34
2022-09-06T22:54:12.508Z,97958.00
2022-09-06T22:57:15.766Z,97962.63
2022-09-06T23:00:19.426Z,97929.59
2022-09-06T23:03:23.262Z,97940.31
2022-09-06T23:06:28.799Z,97940.31
2022-09-06T23:09:32.071Z,97932.16
2022-09-06T23:12:35.379Z,97929.19
2022-09-06T23:15:40.723Z,97933.38
2022-09-06T23:18:48.184Z,97936.06
2022-09-06T23:21:53.094Z,97934.47
2022-09-06T23:24:56.443Z,97931.88
2022-09-06T23:28:00.419Z,97937.66
2022-09-06T23:31:05.129Z,97944.91
2022-09-06T23:34:08.338Z,97933.66
2022-09-06T23:37:13.440Z,97928.34
2022-09-06T23:40:17.017Z,97941.25
2022-09-06T23:43:20.346Z,97941.63
2022-09-06T23:46:23.667Z,97935.94
2022-09-06T23:49:27.189Z,97929.91
2022-09-06T23:52:31.841Z,97915.41
2022-09-06T23:55:35.022Z,97906.13
2022-09-06T23:58:38.890Z,97897.16
